createdAt,value
2019-02-12T00:02:19.842Z,0.91
2019-02-12T00:04:50.097Z,0.89
2019-02-12T00:07:21.520Z,0.77
2019-02-12T00:09:51.773Z,0.73
2019-02-12T00:12:23.192Z,0.73
2019-02-12T00:14:53.448Z,0.71
2019-02-12T00:17:23.944Z,0.66
2019-02-12T00:19:54.195Z,0.65
2019-02-12T00:22:25.620Z,0.58
2019-02-12T00:24:55.867Z,0.59
2019-02-12T00:27:27.290Z,0.59
2019-02-12T00:29:58.759Z,0.57
2019-02-12T00:32:30.192Z,0.50
2019-02-12T00:35:00.449Z,0.52
2019-02-12T00:37:31.254Z,0.51
2019-02-12T00:40:01.514Z,0.52
2019-02-12T00:42:32.928Z,0.45
2019-02-12T00:45:03.191Z,0.51
2019-02-12T00:47:33.689Z,0.58
2019-02-12T00:50:07.990Z,0.53
2019-02-12T00:52:38.426Z,0.51
2019-02-12T00:55:09.144Z,0.48
2019-02-12T00:57:41.635Z,0.47
2019-02-12T01:00:14.496Z,0.45
2019-02-12T01:02:44.848Z,0.44
2019-02-12T01:05:15.107Z,0.46
2019-02-12T01:07:45.343Z,0.44
2019-02-12T01:10:16.763Z,0.43
2019-02-12T01:12:48.193Z,0.45
2019-02-12T01:15:18.444Z,0.43
2019-02-12T01:17:49.865Z,0.43
2019-02-12T01:20:20.123Z,0.42
2019-02-12T01:22:51.538Z,0.39
2019-02-12T01:25:21.797Z,0.47
2019-02-12T01:27:53.213Z,0.57
2019-02-12T01:30:23.465Z,0.59
2019-02-12T01:32:54.885Z,0.64
2019-02-12T01:35:25.160Z,0.68
2019-02-12T01:37:57.791Z,0.69
2019-02-12T01:40:28.044Z,0.69
2019-02-12T01:42:59.464Z,0.67
2019-02-12T01:45:29.719Z,0.71
2019-02-12T01:48:01.313Z,0.67
2019-02-12T01:50:31.691Z,0.60
2019-02-12T01:53:03.118Z,0.55
2019-02-12T01:55:33.368Z,0.52
2019-02-12T01:58:05.713Z,0.51
2019-02-12T02:00:35.967Z,0.51
2019-02-12T02:03:06.777Z,0.53
2019-02-12T02:05:38.451Z,0.64
2019-02-12T02:08:08.692Z,0.78
2019-02-12T02:10:39.188Z,0.87
2019-02-12T02:13:09.509Z,0.93
2019-02-12T02:15:39.933Z,0.95
2019-02-12T02:18:10.261Z,1.00
2019-02-12T02:20:40.510Z,1.06
2019-02-12T02:23:11.938Z,1.08
2019-02-12T02:25:42.185Z,1.09
2019-02-12T02:28:13.605Z,1.09
2019-02-12T02:30:43.864Z,1.13
2019-02-12T02:33:15.294Z,1.13
2019-02-12T02:35:46.182Z,1.14
2019-02-12T02:38:17.574Z,1.20
2019-02-12T02:40:50.114Z,1.24
2019-02-12T02:43:20.479Z,1.24
2019-02-12T02:45:50.724Z,1.24
2019-02-12T02:48:22.151Z,1.22
2019-02-12T02:50:52.755Z,1.24
2019-02-12T02:53:23.210Z,1.25
2019-02-12T02:55:53.466Z,1.25
2019-02-12T02:58:24.880Z,1.21
2019-02-12T03:00:55.136Z,1.21
2019-02-12T03:03:25.939Z,1.34
2019-02-12T03:05:56.194Z,1.33
2019-02-12T03:08:27.694Z,1.35
2019-02-12T03:10:59.086Z,1.35
2019-02-12T03:13:30.517Z,1.38
2019-02-12T03:16:00.761Z,1.38
2019-02-12T03:18:32.191Z,1.40
2019-02-12T03:21:02.444Z,1.34
2019-02-12T03:23:34.038Z,1.29
2019-02-12T03:26:04.414Z,1.28
2019-02-12T03:28:35.847Z,1.18
2019-02-12T03:31:06.104Z,1.14
2019-02-12T03:33:37.519Z,0.95
2019-02-12T03:36:08.997Z,0.99
2019-02-12T03:38:40.416Z,0.91
2019-02-12T03:41:10.670Z,0.86
2019-02-12T03:43:42.088Z,0.77
2019-02-12T03:46:12.348Z,0.76
2019-02-12T03:48:43.769Z,0.75
2019-02-12T03:51:14.624Z,0.68
2019-02-12T03:53:46.052Z,0.65
2019-02-12T03:56:16.305Z,0.67
2019-02-12T03:58:47.733Z,0.60
2019-02-12T04:01:17.988Z,0.63
2019-02-12T04:03:49.406Z,0.62
2019-02-12T04:06:19.657Z,0.57
2019-02-12T04:08:51.076Z,0.53
2019-02-12T04:11:21.328Z,0.45
2019-02-12T04:13:52.752Z,0.44
2019-02-12T04:16:24.231Z,0.41
2019-02-12T04:18:56.576Z,0.47
2019-02-12T04:21:28.045Z,0.47
2019-02-12T04:23:59.489Z,0.44
2019-02-12T04:26:30.947Z,0.40
2019-02-12T04:29:03.307Z,0.36
2019-02-12T04:31:33.553Z,0.35
2019-02-12T04:34:04.971Z,0.29
2019-02-12T04:36:35.268Z,0.28
2019-02-12T04:39:06.662Z,0.25
2019-02-12T04:41:38.119Z,0.31
2019-02-12T04:44:10.481Z,0.33
2019-02-12T04:46:42.863Z,0.35
2019-02-12T04:49:14.298Z,0.37
2019-02-12T04:51:45.852Z,0.36
2019-02-12T04:54:16.278Z,0.35
2019-02-12T04:56:46.531Z,0.37
2019-02-12T04:59:17.951Z,0.40
2019-02-12T05:01:49.420Z,0.50
2019-02-12T05:04:20.852Z,0.61
2019-02-12T05:06:51.110Z,0.60
2019-02-12T05:09:22.541Z,0.67
2019-02-12T05:11:53.830Z,0.70
2019-02-12T05:14:24.268Z,0.64
2019-02-12T05:16:56.903Z,0.62
2019-02-12T05:19:28.336Z,0.61
2019-02-12T05:21:58.589Z,0.58
2019-02-12T05:24:30.628Z,0.56
2019-02-12T05:27:02.093Z,0.53
2019-02-12T05:29:33.530Z,0.50
2019-02-12T05:32:05.002Z,0.45
2019-02-12T05:34:36.424Z,0.54
2019-02-12T05:37:19.627Z,0.55
2019-02-12T05:39:52.536Z,0.68
2019-02-12T05:42:22.785Z,0.69
2019-02-12T05:44:54.215Z,0.80
2019-02-12T05:47:25.664Z,0.87
2019-02-12T05:49:55.895Z,0.87
2019-02-12T05:52:27.337Z,0.92
2019-02-12T05:54:57.581Z,1.01
2019-02-12T05:57:30.244Z,1.01
2019-02-12T06:00:01.706Z,1.04
2019-02-12T06:02:32.537Z,1.03
2019-02-12T06:05:05.321Z,0.99
2019-02-12T06:07:35.752Z,1.05
2019-02-12T06:10:10.093Z,1.05
2019-02-12T06:12:40.333Z,1.07
2019-02-12T06:15:10.712Z,1.12
2019-02-12T06:17:40.952Z,1.15
2019-02-12T06:20:12.395Z,1.17
2019-02-12T06:22:43.842Z,1.21
2019-02-12T06:25:15.303Z,1.28
2019-02-12T06:27:45.528Z,1.34
2019-02-12T06:30:16.960Z,1.35
2019-02-12T06:32:47.222Z,1.38
2019-02-12T06:35:18.640Z,1.38
2019-02-12T06:37:50.095Z,1.44
2019-02-12T06:40:21.547Z,1.44
2019-02-12T06:42:53.008Z,1.48
2019-02-12T06:45:24.454Z,1.48
2019-02-12T06:47:56.839Z,1.48
2019-02-12T06:50:29.179Z,1.57
2019-02-12T06:53:00.651Z,1.57
2019-02-12T06:55:48.670Z,1.59
2019-02-12T06:58:18.910Z,1.64
2019-02-12T07:00:50.356Z,1.64
2019-02-12T07:03:22.871Z,1.64
2019-02-12T07:06:10.752Z,1.59
2019-02-12T07:08:52.889Z,1.59
2019-02-12T07:11:38.366Z,1.71
2019-02-12T07:14:23.560Z,1.87
2019-02-12T07:17:28.649Z,1.87
2019-02-12T07:20:20.160Z,2.04
2019-02-12T07:22:56.335Z,2.01
2019-02-12T07:25:48.703Z,2.39
2019-02-12T07:28:44.640Z,2.94
2019-02-12T07:31:24.142Z,3.06
2019-02-12T07:34:17.007Z,3.44
2019-02-12T07:37:11.356Z,4.15
2019-02-12T07:39:59.160Z,4.72
2019-02-12T07:42:44.765Z,5.94
2019-02-12T07:45:33.050Z,6.97
2019-02-12T07:48:12.132Z,8.32
2019-02-12T07:51:18.943Z,7.59
2019-02-12T07:54:08.604Z,8.34
2019-02-12T07:57:01.471Z,7.96
2019-02-12T07:59:34.976Z,8.76
2019-02-12T08:02:34.182Z,8.15
2019-02-12T08:05:24.978Z,7.76
2019-02-12T08:08:19.655Z,7.19
2019-02-12T08:11:02.046Z,4.86
2019-02-12T08:13:50.447Z,4.29
2019-02-12T08:16:38.845Z,4.03
2019-02-12T08:19:27.152Z,3.96
2019-02-12T08:22:33.610Z,3.38
2019-02-12T08:25:27.990Z,3.60
2019-02-12T08:28:04.049Z,3.91
2019-02-12T08:30:49.545Z,3.60
2019-02-12T08:33:28.536Z,3.68
2019-02-12T08:36:07.767Z,5.71
2019-02-12T08:38:47.158Z,5.41
2019-02-12T08:41:53.806Z,6.41
2019-02-12T08:44:42.535Z,6.36
2019-02-12T08:47:18.726Z,7.26
2019-02-12T08:50:06.865Z,6.98
2019-02-12T08:52:43.055Z,6.30
2019-02-12T08:55:31.624Z,7.33
2019-02-12T08:58:10.872Z,7.12
2019-02-12T09:00:48.254Z,7.77
2019-02-12T09:03:39.084Z,5.93
2019-02-12T09:06:31.749Z,5.20
2019-02-12T09:09:14.253Z,4.90
2019-02-12T09:12:05.772Z,4.39
2019-02-12T09:14:54.205Z,4.37
2019-02-12T09:17:42.508Z,4.62
2019-02-12T09:20:24.658Z,4.40
2019-02-12T09:23:29.565Z,4.50
2019-02-12T09:26:08.989Z,4.61
2019-02-12T09:29:08.251Z,4.55
2019-02-12T09:31:44.556Z,4.43
2019-02-12T09:34:30.055Z,3.91
2019-02-12T09:37:39.759Z,3.84
2019-02-12T09:40:20.222Z,3.61
2019-02-12T09:43:15.473Z,3.72
2019-02-12T09:45:58.057Z,3.90
2019-02-12T09:48:31.551Z,3.80
2019-02-12T09:51:18.928Z,3.85
2019-02-12T09:54:09.152Z,4.26
2019-02-12T09:56:48.495Z,4.13
2019-02-12T09:59:38.818Z,4.07
2019-02-12T10:02:26.914Z,4.24
2019-02-12T10:05:13.824Z,4.42
2019-02-12T10:08:08.950Z,4.85
2019-02-12T10:10:51.492Z,5.19
2019-02-12T10:13:42.905Z,5.39
2019-02-12T10:16:25.113Z,5.23
2019-02-12T10:19:19.653Z,5.42
2019-02-12T10:21:58.893Z,5.13
2019-02-12T10:24:45.629Z,4.86
2019-02-12T10:27:35.509Z,4.69
2019-02-12T10:30:25.454Z,4.45
2019-02-12T10:32:58.079Z,4.39
2019-02-12T10:35:29.864Z,4.49
2019-02-12T10:38:00.117Z,4.85
2019-02-12T10:40:30.658Z,5.03
2019-02-12T10:43:00.927Z,5.16
2019-02-12T10:45:31.360Z,5.13
2019-02-12T10:48:01.756Z,4.99
2019-02-12T10:50:34.119Z,4.95
2019-02-12T10:53:04.631Z,4.55
2019-02-12T10:55:36.399Z,4.54
2019-02-12T10:58:09.642Z,4.16
2019-02-12T11:00:40.143Z,4.36
2019-02-12T11:03:10.621Z,4.36
2019-02-12T11:05:42.059Z,4.48
2019-02-12T11:08:13.519Z,4.65
2019-02-12T11:10:45.212Z,4.97
2019-02-12T11:13:17.957Z,5.17
2019-02-12T11:15:49.472Z,5.45
2019-02-12T11:18:19.940Z,5.67
2019-02-12T11:20:51.377Z,6.10
2019-02-12T11:23:24.062Z,5.57
2019-02-12T11:25:55.502Z,5.58
2019-02-12T11:28:25.752Z,5.34
2019-02-12T11:30:57.357Z,5.56
2019-02-12T11:33:27.711Z,5.30
2019-02-12T11:35:59.161Z,5.59
2019-02-12T11:38:29.701Z,5.49
2019-02-12T11:41:01.154Z,5.33
2019-02-12T11:43:32.623Z,5.31
2019-02-12T11:46:04.038Z,5.34
2019-02-12T11:48:34.275Z,5.22
2019-02-12T11:51:06.325Z,5.15
2019-02-12T11:53:36.567Z,5.09
2019-02-12T11:56:07.992Z,5.06
2019-02-12T11:58:39.476Z,4.84
2019-02-12T12:01:13.793Z,4.79
2019-02-12T12:03:44.202Z,4.94
2019-02-12T12:06:17.744Z,4.77
2019-02-12T12:08:48.036Z,4.76
2019-02-12T12:11:19.481Z,4.60
2019-02-12T12:13:50.011Z,4.71
2019-02-12T12:16:23.365Z,4.62
2019-02-12T12:18:53.556Z,4.47
2019-02-12T12:21:24.981Z,4.81
2019-02-12T12:23:57.977Z,4.87
2019-02-12T12:26:29.423Z,4.70
2019-02-12T12:29:00.884Z,5.19
2019-02-12T12:31:32.327Z,5.40
2019-02-12T12:34:03.770Z,5.62
2019-02-12T12:36:34.009Z,5.34
2019-02-12T12:39:05.924Z,5.21
2019-02-12T12:41:38.747Z,5.16
2019-02-12T12:44:10.195Z,5.23
2019-02-12T12:46:40.421Z,5.39
2019-02-12T12:49:11.878Z,5.25
2019-02-12T12:51:43.338Z,5.35
2019-02-12T12:54:14.799Z,5.33
2019-02-12T12:56:46.239Z,5.36
2019-02-12T12:59:17.697Z,5.52
2019-02-12T13:01:49.154Z,5.39
2019-02-12T13:04:20.586Z,5.48
2019-02-12T13:06:52.045Z,5.05
2019-02-12T13:09:23.476Z,4.97
2019-02-12T13:11:53.752Z,5.06
2019-02-12T13:14:25.236Z,5.16
2019-02-12T13:16:55.784Z,5.47
2019-02-12T13:19:26.021Z,5.40
2019-02-12T13:21:56.629Z,5.24
2019-02-12T13:24:26.967Z,5.16
2019-02-12T13:26:58.451Z,5.06
2019-02-12T13:29:33.281Z,4.93
2019-02-12T13:32:07.187Z,4.93
2019-02-12T13:34:39.545Z,4.87
2019-02-12T13:37:10.994Z,4.96
2019-02-12T13:39:42.430Z,4.94
2019-02-12T13:42:13.910Z,4.91
2019-02-12T13:44:47.383Z,5.04
2019-02-12T13:47:21.398Z,5.07
2019-02-12T13:49:51.919Z,5.17
2019-02-12T13:52:22.172Z,5.24
2019-02-12T13:54:53.629Z,5.11
2019-02-12T13:57:25.080Z,5.09
2019-02-12T13:59:57.428Z,4.90
2019-02-12T14:02:29.819Z,4.56
2019-02-12T14:05:01.261Z,4.62
2019-02-12T14:07:32.717Z,4.65
2019-02-12T14:10:06.384Z,4.81
2019-02-12T14:12:36.854Z,4.88
2019-02-12T14:15:11.915Z,4.88
2019-02-12T14:17:45.271Z,4.77
2019-02-12T14:20:16.885Z,4.76
2019-02-12T14:22:47.248Z,4.65
2019-02-12T14:25:25.208Z,4.51
2019-02-12T14:27:50.658Z,4.48
2019-02-12T14:30:22.356Z,4.40
2019-02-12T14:32:53.590Z,4.42
2019-02-12T14:35:23.825Z,4.43
2019-02-12T14:37:54.081Z,4.57
2019-02-12T14:40:24.325Z,4.51
2019-02-12T14:42:54.588Z,4.42
2019-02-12T14:45:24.835Z,4.33
2019-02-12T14:47:55.083Z,4.33
2019-02-12T14:50:25.350Z,4.35
2019-02-12T14:52:55.587Z,4.27
2019-02-12T14:55:33.337Z,4.24
2019-02-12T14:57:57.824Z,4.22
2019-02-12T15:00:28.087Z,4.17
2019-02-12T15:02:58.339Z,4.13
2019-02-12T15:05:28.717Z,4.11
2019-02-12T15:08:00.186Z,4.00
2019-02-12T15:10:30.431Z,4.00
2019-02-12T15:13:00.697Z,4.01
2019-02-12T15:15:30.952Z,3.95
2019-02-12T15:18:01.210Z,3.92
2019-02-12T15:20:31.476Z,3.89
2019-02-12T15:23:01.748Z,3.82
2019-02-12T15:25:32.084Z,3.78
2019-02-12T15:28:02.349Z,3.75
2019-02-12T15:30:32.613Z,3.72
2019-02-12T15:33:03.436Z,3.68
2019-02-12T15:35:33.689Z,3.57
2019-02-12T15:38:04.008Z,3.51
2019-02-12T15:40:34.275Z,3.44
2019-02-12T15:43:05.750Z,3.39
2019-02-12T15:45:36.006Z,3.32
2019-02-12T15:48:07.416Z,3.26
2019-02-12T15:50:37.690Z,3.18
2019-02-12T15:53:07.936Z,3.11
2019-02-12T15:55:42.350Z,3.09
2019-02-12T15:58:10.157Z,3.04
2019-02-12T16:00:41.523Z,3.00
2019-02-12T16:03:12.352Z,2.88
2019-02-12T16:05:42.644Z,2.85
2019-02-12T16:08:12.895Z,2.79
2019-02-12T16:10:43.180Z,2.74
2019-02-12T16:13:13.729Z,2.69
2019-02-12T16:15:47.129Z,2.66
2019-02-12T16:18:17.439Z,2.60
2019-02-12T16:20:47.692Z,2.57
2019-02-12T16:23:17.998Z,2.52
2019-02-12T16:25:48.262Z,2.49
2019-02-12T16:28:18.531Z,2.44
2019-02-12T16:30:48.805Z,2.35
2019-02-12T16:33:19.084Z,2.32
2019-02-12T16:35:49.356Z,2.31
2019-02-12T16:38:19.631Z,2.27
2019-02-12T16:40:50.811Z,2.30
2019-02-12T16:43:21.103Z,2.18
2019-02-12T16:46:00.546Z,2.12
2019-02-12T16:48:30.820Z,2.10
2019-02-12T16:51:01.096Z,2.07
2019-02-12T16:53:31.361Z,1.99
2019-02-12T16:56:08.134Z,1.99
2019-02-12T16:58:33.921Z,1.98
2019-02-12T17:01:04.587Z,2.04
2019-02-12T17:03:34.972Z,2.07
2019-02-12T17:06:05.737Z,2.03
2019-02-12T17:08:36.057Z,1.98
2019-02-12T17:11:06.361Z,1.94
2019-02-12T17:13:36.621Z,1.94
2019-02-12T17:16:06.897Z,1.87
2019-02-12T17:18:37.330Z,1.77
2019-02-12T17:21:07.593Z,1.81
2019-02-12T17:23:39.384Z,1.72
2019-02-12T17:26:16.252Z,1.66
2019-02-12T17:28:44.439Z,1.58
2019-02-12T17:31:18.007Z,1.62
2019-02-12T17:33:49.730Z,1.62
2019-02-12T17:36:20.321Z,1.60
2019-02-12T17:38:50.705Z,1.58
2019-02-12T17:41:21.989Z,1.39
2019-02-12T17:43:52.269Z,1.39
2019-02-12T17:46:22.568Z,1.28
2019-02-12T17:48:54.517Z,1.13
2019-02-12T17:51:25.056Z,1.11
2019-02-12T17:53:56.514Z,1.11
2019-02-12T17:56:26.879Z,1.04
2019-02-12T17:58:57.937Z,1.04
2019-02-12T18:01:28.591Z,1.02
2019-02-12T18:03:58.860Z,1.02
2019-02-12T18:06:29.330Z,0.99
2019-02-12T18:08:59.601Z,0.99
2019-02-12T18:11:30.073Z,0.94
2019-02-12T18:14:00.360Z,0.90
2019-02-12T18:16:31.741Z,0.92
2019-02-12T18:19:02.069Z,0.94
2019-02-12T18:21:32.350Z,0.89
2019-02-12T18:24:02.607Z,0.82
2019-02-12T18:26:33.682Z,0.81
2019-02-12T18:29:04.055Z,0.85
2019-02-12T18:31:35.522Z,0.86
2019-02-12T18:34:06.040Z,0.86
2019-02-12T18:36:36.491Z,0.88
2019-02-12T18:39:06.747Z,0.88
2019-02-12T18:41:38.892Z,0.87
2019-02-12T18:44:09.238Z,0.90
2019-02-12T18:46:39.704Z,0.94
2019-02-12T18:49:10.066Z,0.90
2019-02-12T18:51:40.366Z,0.98
2019-02-12T18:54:11.828Z,0.98
2019-02-12T18:56:42.403Z,1.00
2019-02-12T18:59:13.523Z,1.01
2019-02-12T19:01:43.793Z,1.01
2019-02-12T19:04:14.138Z,1.01
2019-02-12T19:06:44.605Z,1.06
2019-02-12T19:09:17.062Z,1.06
2019-02-12T19:11:54.185Z,1.06
2019-02-12T19:14:21.063Z,1.00
2019-02-12T19:16:51.341Z,1.02
2019-02-12T19:19:21.585Z,0.97
2019-02-12T19:21:52.164Z,0.98
2019-02-12T19:24:22.609Z,0.99
2019-02-12T19:26:52.859Z,0.98
2019-02-12T19:29:23.361Z,1.01
2019-02-12T19:31:59.201Z,0.97
2019-02-12T19:34:25.807Z,0.96
2019-02-12T19:36:56.079Z,0.94
2019-02-12T19:39:26.407Z,0.94
2019-02-12T19:41:56.927Z,0.97
2019-02-12T19:44:27.394Z,0.98
2019-02-12T19:46:57.865Z,0.99
2019-02-12T19:49:29.262Z,1.02
2019-02-12T19:51:59.542Z,1.01
2019-02-12T19:54:30.837Z,1.01
2019-02-12T19:57:03.749Z,1.00
2019-02-12T19:59:34.910Z,1.04
2019-02-12T20:02:05.191Z,1.00
2019-02-12T20:04:36.596Z,1.01
2019-02-12T20:07:06.853Z,1.00
2019-02-12T20:09:37.225Z,0.99
2019-02-12T20:12:18.754Z,1.02
2019-02-12T20:14:49.032Z,1.00
2019-02-12T20:17:20.478Z,0.98
2019-02-12T20:19:53.608Z,0.99
2019-02-12T20:22:23.885Z,0.95
2019-02-12T20:24:54.231Z,0.94
2019-02-12T20:27:24.506Z,0.91
2019-02-12T20:29:56.836Z,0.89
2019-02-12T20:32:28.558Z,0.85
2019-02-12T20:35:23.613Z,0.82
2019-02-12T20:37:57.197Z,0.76
2019-02-12T20:40:35.657Z,0.69
2019-02-12T20:43:11.437Z,0.66
2019-02-12T20:45:51.394Z,0.66
2019-02-12T20:48:30.971Z,0.54
2019-02-12T20:51:12.469Z,0.50
2019-02-12T20:53:59.519Z,0.46
2019-02-12T20:56:29.819Z,0.36
2019-02-12T20:59:00.629Z,0.37
2019-02-12T21:01:31.764Z,0.32
2019-02-12T21:04:02.211Z,0.29
2019-02-12T21:06:32.539Z,0.32
2019-02-12T21:09:03.085Z,0.31
2019-02-12T21:11:35.604Z,0.30
2019-02-12T21:14:10.015Z,0.28
2019-02-12T21:16:43.110Z,0.21
2019-02-12T21:19:14.896Z,0.14
2019-02-12T21:21:47.039Z,0.14
2019-02-12T21:24:17.340Z,0.12
2019-02-12T21:26:49.215Z,0.09
2019-02-12T21:29:20.829Z,0.06
2019-02-12T21:31:52.150Z,0.06
2019-02-12T21:34:22.463Z,0.08
2019-02-12T21:36:54.008Z,0.07
2019-02-12T21:39:27.932Z,-0.03
2019-02-12T21:41:59.536Z,-0.10
2019-02-12T21:44:31.588Z,-0.09
2019-02-12T21:47:02.561Z,-0.10
2019-02-12T21:49:33.232Z,-0.08
2019-02-12T21:52:03.489Z,-0.09
2019-02-12T21:54:33.742Z,-0.09
2019-02-12T21:57:04.142Z,-0.11
2019-02-12T21:59:34.399Z,-0.14
2019-02-12T22:02:05.553Z,-0.16
2019-02-12T22:04:35.879Z,-0.15
2019-02-12T22:07:07.233Z,-0.15
2019-02-12T22:09:40.670Z,-0.14
2019-02-12T22:12:13.198Z,-0.15
2019-02-12T22:14:57.574Z,-0.23
2019-02-12T22:17:32.206Z,-0.34
2019-02-12T22:20:10.605Z,-0.34
2019-02-12T22:22:42.985Z,-0.36
2019-02-12T22:25:14.448Z,-0.29
2019-02-12T22:27:48.596Z,-0.20
2019-02-12T22:30:25.166Z,-0.16
2019-02-12T22:33:01.504Z,-0.08
2019-02-12T22:35:40.588Z,0.01
2019-02-12T22:38:12.237Z,0.04
2019-02-12T22:40:44.074Z,0.08
2019-02-12T22:43:15.506Z,0.13
2019-02-12T22:45:47.548Z,0.22
2019-02-12T22:48:17.877Z,0.24
2019-02-12T22:50:48.710Z,0.31
2019-02-12T22:53:19.336Z,0.33
2019-02-12T22:55:50.490Z,0.39
2019-02-12T22:58:20.726Z,0.47
2019-02-12T23:00:55.479Z,0.51
2019-02-12T23:03:27.318Z,0.56
2019-02-12T23:05:57.581Z,0.59
2019-02-12T23:08:27.818Z,0.67
2019-02-12T23:10:58.061Z,0.73
2019-02-12T23:13:28.305Z,0.77
2019-02-12T23:15:58.551Z,0.86
2019-02-12T23:18:28.933Z,0.83
2019-02-12T23:21:00.240Z,0.67
2019-02-12T23:23:30.654Z,0.67
2019-02-12T23:26:00.911Z,0.80
2019-02-12T23:28:31.843Z,0.80
2019-02-12T23:31:02.087Z,0.79
2019-02-12T23:33:32.322Z,0.73
2019-02-12T23:36:03.202Z,0.58
2019-02-12T23:38:33.445Z,0.58
2019-02-12T23:41:03.710Z,0.64
2019-02-12T23:43:34.070Z,0.68
2019-02-12T23:46:05.560Z,0.67
2019-02-12T23:48:35.796Z,0.68
2019-02-12T23:51:06.194Z,0.71
2019-02-12T23:53:36.437Z,0.71
2019-02-12T23:56:06.701Z,0.78
2019-02-12T23:58:37.067Z,0.80
